Anthon, Iowa
Current Conditions -  °F | °C
As of 8:52 PM on Thursday 27 Nov 2014 (Local Time) from KSUX Reporting Station
Few Clouds Few Clouds  
Wind Chill:   Ceiling: Unl
Heat Index: 20°   Visibility: 10mi
Dew Point: 10°   Wind: 12mph
Humidity: 65%   Direction: 130°SE
Pressure: 30.2"   Gusts: NA
Location:  42.39°N, 95.87°W
Report Text: KSUX 280252Z AUTO 13010KT 10SM FEW120 M07/M12 A3020 RMK AO2 SLP250 T10671122 56029
Loading
Personal Weather Stations






























Interactive Weather Map New forecast layout! Learn more

10-Day Weather Forecast

Advertisements
Track Severe Weather on mobile